Time;durP1;ratioP1;P1;durP2;ratioP2;P2;SDS_P1;SDS_P2;PMS_P1;PMS_P2;Temp;Humidity;BMP_temperature;BMP_pressure;BME280_temperature;BME280_humidity;BME280_pressure;Samples;Min_cycle;Max_cycle;Signal;HPM_P1;HPM_P2
2023/10/31 00:01:31;;;;;;;7.70;4.80;;;12.40;99.90;;;;;;5006641;28;20332;-68
2023/10/31 00:03:58;;;;;;;6.80;4.88;;;12.30;99.90;;;;;;5005275;28;20224;-68
2023/10/31 00:06:26;;;;;;;5.55;4.93;;;12.30;99.90;;;;;;4982454;28;20224;-68
2023/10/31 00:08:53;;;;;;;5.57;4.72;;;12.00;99.90;;;;;;5002631;28;20206;-69
2023/10/31 00:11:19;;;;;;;7.57;4.78;;;12.30;99.90;;;;;;5016294;28;20236;-68
2023/10/31 00:13:47;;;;;;;5.10;4.60;;;12.40;99.90;;;;;;5002946;28;20235;-68
2023/10/31 00:16:14;;;;;;;5.80;5.20;;;12.40;99.90;;;;;;5008280;28;20202;-68
2023/10/31 00:18:41;;;;;;;9.23;6.53;;;12.30;99.90;;;;;;5007512;28;20202;-69
2023/10/31 00:21:08;;;;;;;6.47;4.88;;;12.40;99.90;;;;;;5015860;28;20542;-68
2023/10/31 00:23:44;;;;;;;8.43;5.63;;;12.30;99.90;;;;;;4983629;28;20213;-68
2023/10/31 00:26:11;;;;;;;7.43;5.85;;;11.90;99.90;;;;;;5006409;28;20209;-68
2023/10/31 00:28:37;;;;;;;8.10;5.90;;;12.20;99.90;;;;;;5001829;28;20197;-68
2023/10/31 00:31:05;;;;;;;5.63;5.03;;;12.40;99.90;;;;;;5009308;28;20205;-68
2023/10/31 00:33:31;;;;;;;9.50;5.97;;;12.30;99.90;;;;;;5007175;28;20205;-68
2023/10/31 00:35:58;;;;;;;6.47;5.75;;;12.30;99.90;;;;;;5016039;28;20197;-68
2023/10/31 00:38:25;;;;;;;6.57;5.75;;;12.30;99.90;;;;;;4996840;28;21045;-68
2023/10/31 00:40:53;;;;;;;7.82;5.40;;;12.40;99.90;;;;;;5004223;28;21219;-68
2023/10/31 00:43:20;;;;;;;6.93;5.60;;;12.40;99.90;;;;;;5022083;28;20203;-68
2023/10/31 00:45:47;;;;;;;9.00;6.03;;;12.30;99.90;;;;;;5005168;28;20232;-68
2023/10/31 00:48:13;;;;;;;6.35;5.63;;;12.30;99.90;;;;;;5000497;28;20209;-68
2023/10/31 00:50:40;;;;;;;6.38;5.72;;;12.00;99.90;;;;;;5016354;28;20229;-69
2023/10/31 00:53:08;;;;;;;6.22;5.63;;;12.40;99.90;;;;;;4993210;28;20213;-69
2023/10/31 00:55:35;;;;;;;6.20;5.43;;;12.10;99.90;;;;;;5017341;28;20555;-69
2023/10/31 00:58:05;;;;;;;5.72;5.10;;;12.50;99.90;;;;;;5004735;28;20414;-68
2023/10/31 01:00:34;;;;;;;6.53;5.82;;;12.30;99.90;;;;;;5004426;28;20205;-68
2023/10/31 01:03:00;;;;;;;7.13;5.85;;;12.40;99.90;;;;;;5008024;28;20300;-68
2023/10/31 01:05:28;;;;;;;6.97;5.97;;;12.50;99.90;;;;;;5007304;28;20225;-69
2023/10/31 01:07:55;;;;;;;7.15;6.45;;;;;;;;;;4995843;28;21020;-68
2023/10/31 01:10:22;;;;;;;6.50;5.90;;;12.50;99.90;;;;;;5009367;28;20206;-68
2023/10/31 01:12:49;;;;;;;6.80;5.85;;;12.40;99.90;;;;;;5008535;28;20205;-69
2023/10/31 01:15:17;;;;;;;8.45;6.43;;;12.40;99.90;;;;;;5002820;28;20219;-68
2023/10/31 01:17:44;;;;;;;7.22;6.07;;;12.90;99.90;;;;;;5003953;28;20224;-68
2023/10/31 01:20:11;;;;;;;7.30;6.43;;;12.50;99.90;;;;;;5012727;28;20210;-68
2023/10/31 01:22:38;;;;;;;8.30;6.30;;;12.30;99.90;;;;;;5020076;28;20201;-68
2023/10/31 01:25:06;;;;;;;6.60;5.85;;;12.40;99.90;;;;;;4992805;28;20226;-68
2023/10/31 01:27:33;;;;;;;6.85;5.93;;;12.40;99.90;;;;;;5013544;28;20201;-68
2023/10/31 01:29:59;;;;;;;8.85;6.78;;;12.30;99.90;;;;;;4999323;28;20595;-69
2023/10/31 01:32:28;;;;;;;7.95;6.40;;;12.40;99.90;;;;;;5022268;28;20252;-68
2023/10/31 01:34:54;;;;;;;7.80;6.22;;;12.50;99.90;;;;;;4998714;28;20225;-69
2023/10/31 01:37:21;;;;;;;8.32;5.88;;;12.40;99.90;;;;;;5021069;28;20204;-68
2023/10/31 01:39:48;;;;;;;8.23;6.85;;;12.40;99.90;;;;;;4981384;28;20766;-68
2023/10/31 01:42:15;;;;;;;9.07;5.63;;;12.40;99.90;;;;;;5012437;28;20208;-68
2023/10/31 01:44:42;;;;;;;7.28;5.97;;;12.10;99.90;;;;;;5013814;28;20308;-68
2023/10/31 01:47:09;;;;;;;8.38;6.70;;;12.50;99.90;;;;;;5014071;28;20205;-68
2023/10/31 01:49:39;;;;;;;8.77;6.45;;;12.50;99.90;;;;;;5011152;28;20566;-68
2023/10/31 01:52:07;;;;;;;6.20;5.57;;;12.40;99.90;;;;;;5012366;28;20901;-68
2023/10/31 01:54:34;;;;;;;7.22;6.03;;;12.40;99.90;;;;;;4991150;28;20690;-69
2023/10/31 01:57:02;;;;;;;7.30;6.05;;;12.40;99.90;;;;;;5009900;28;20212;-69
2023/10/31 01:59:29;;;;;;;6.82;5.65;;;12.30;99.90;;;;;;5018383;28;20216;-68
2023/10/31 02:01:57;;;;;;;8.27;6.38;;;12.40;99.90;;;;;;4999820;28;20233;-68
2023/10/31 02:04:24;;;;;;;8.25;6.35;;;12.50;99.90;;;;;;5013815;28;21017;-68
2023/10/31 02:06:53;;;;;;;7.03;6.13;;;12.40;99.90;;;;;;5014025;28;20208;-68
2023/10/31 02:09:23;;;;;;;7.45;6.00;;;12.50;99.90;;;;;;4987569;28;20228;-68
2023/10/31 02:11:50;;;;;;;7.40;6.30;;;12.40;99.90;;;;;;5012985;28;20293;-68
2023/10/31 02:14:17;;;;;;;8.50;6.25;;;12.40;99.90;;;;;;5011927;28;21404;-68
2023/10/31 02:16:44;;;;;;;5.95;5.35;;;12.40;99.90;;;;;;5008755;28;20204;-69
2023/10/31 02:19:13;;;;;;;7.07;5.55;;;11.70;99.90;;;;;;5011615;28;20216;-68
2023/10/31 02:21:41;;;;;;;9.88;6.10;;;12.30;99.90;;;;;;5024167;28;20205;-68
2023/10/31 02:24:09;;;;;;;7.20;5.53;;;12.40;99.90;;;;;;5004705;28;20201;-69
2023/10/31 02:26:36;;;;;;;5.88;5.22;;;12.40;99.90;;;;;;5010301;28;20383;-69
2023/10/31 02:29:03;;;;;;;6.82;5.47;;;12.40;99.90;;;;;;5008046;28;20202;-68
2023/10/31 02:31:30;;;;;;;5.97;5.10;;;12.40;99.90;;;;;;5016353;28;20198;-68
2023/10/31 02:33:57;;;;;;;7.32;5.03;;;12.50;99.90;;;;;;5006602;28;20205;-68
2023/10/31 02:36:24;;;;;;;7.65;5.68;;;12.50;99.90;;;;;;5010345;28;20214;-68
2023/10/31 02:38:52;;;;;;;6.43;5.10;;;12.40;99.90;;;;;;5012438;28;20212;-68
2023/10/31 02:41:19;;;;;;;6.30;5.05;;;12.30;99.90;;;;;;4988193;28;20236;-68
2023/10/31 02:43:46;;;;;;;6.35;5.30;;;12.40;99.90;;;;;;5003452;28;20209;-68
2023/10/31 02:46:14;;;;;;;7.15;6.13;;;;;;;;;;5015781;28;20229;-68
2023/10/31 02:48:41;;;;;;;5.90;5.05;;;12.40;99.90;;;;;;5004348;28;20201;-69
2023/10/31 02:51:08;;;;;;;10.55;6.18;;;12.30;99.90;;;;;;5012964;28;20225;-68
2023/10/31 02:53:36;;;;;;;7.28;5.53;;;12.40;99.90;;;;;;5021730;28;20212;-69
2023/10/31 02:56:04;;;;;;;10.55;6.70;;;12.40;99.90;;;;;;4983149;28;20721;-69
2023/10/31 02:58:31;;;;;;;7.40;6.13;;;;;;;;;;5004717;28;20589;-69
2023/10/31 03:00:58;;;;;;;7.53;6.20;;;12.40;99.90;;;;;;5014665;28;20217;-68
2023/10/31 03:03:25;;;;;;;8.10;6.47;;;12.50;99.90;;;;;;5006649;28;20572;-69
2023/10/31 03:05:52;;;;;;;7.25;5.93;;;12.00;99.90;;;;;;5007156;28;20992;-69
2023/10/31 03:08:20;;;;;;;7.22;5.90;;;12.30;99.90;;;;;;5015685;28;20201;-68
2023/10/31 03:10:50;;;;;;;8.02;6.60;;;12.30;99.90;;;;;;5019473;28;20746;-69
2023/10/31 03:13:19;;;;;;;8.77;7.18;;;12.30;99.90;;;;;;4987145;28;20682;-68
2023/10/31 03:15:47;;;;;;;8.02;6.93;;;12.40;99.90;;;;;;5001060;28;20213;-68
2023/10/31 03:18:15;;;;;;;8.70;7.38;;;12.40;99.90;;;;;;5018004;28;21366;-68
2023/10/31 03:20:44;;;;;;;9.27;7.35;;;12.40;99.90;;;;;;4991540;28;20202;-69
2023/10/31 03:23:11;;;;;;;9.18;7.30;;;12.40;99.90;;;;;;5009988;28;20228;-69
2023/10/31 03:25:38;;;;;;;13.13;8.00;;;12.40;99.90;;;;;;5014658;28;20236;-69
2023/10/31 03:28:04;;;;;;;10.55;7.85;;;12.40;99.90;;;;;;4980714;28;20951;-68
2023/10/31 03:30:32;;;;;;;10.65;8.20;;;12.40;99.90;;;;;;5002254;28;20312;-68
2023/10/31 03:32:59;;;;;;;11.25;7.82;;;12.40;99.90;;;;;;5009943;28;20205;-69
2023/10/31 03:35:26;;;;;;;11.20;8.05;;;12.50;99.90;;;;;;5001557;28;20213;-69
2023/10/31 03:37:53;;;;;;;9.85;7.90;;;12.20;99.90;;;;;;5003624;28;20299;-68
2023/10/31 03:40:19;;;;;;;10.38;8.02;;;12.50;99.90;;;;;;5016690;28;20202;-68
2023/10/31 03:42:46;;;;;;;11.02;8.10;;;12.40;99.90;;;;;;5014410;28;20205;-68
2023/10/31 03:45:13;;;;;;;10.43;8.23;;;12.40;99.90;;;;;;4978605;28;20229;-69
2023/10/31 03:47:41;;;;;;;9.55;8.05;;;12.20;99.90;;;;;;5013153;28;20203;-69
2023/10/31 03:50:10;;;;;;;12.38;8.38;;;10.50;99.90;;;;;;5004001;28;20201;-68
2023/10/31 03:52:37;;;;;;;11.73;8.43;;;12.80;99.90;;;;;;4992298;28;20226;-68
2023/10/31 03:55:04;;;;;;;10.60;7.90;;;12.50;99.90;;;;;;5015381;28;20217;-69
2023/10/31 03:57:31;;;;;;;9.82;8.05;;;12.50;99.90;;;;;;5013705;28;20255;-69
2023/10/31 03:59:58;;;;;;;10.23;7.82;;;12.50;99.90;;;;;;4981481;28;20229;-69
2023/10/31 04:02:25;;;;;;;11.95;8.73;;;12.50;99.90;;;;;;4969015;28;20204;-69
2023/10/31 04:04:53;;;;;;;9.35;7.70;;;12.50;99.90;;;;;;5003133;28;20631;-69
2023/10/31 04:07:19;;;;;;;11.50;8.90;;;12.50;99.90;;;;;;4981501;28;20226;-69
2023/10/31 04:09:46;;;;;;;11.70;8.57;;;12.50;99.90;;;;;;4994765;28;20213;-69
2023/10/31 04:12:13;;;;;;;15.55;9.25;;;12.50;99.90;;;;;;5004201;28;20274;-68
2023/10/31 04:14:40;;;;;;;13.38;8.80;;;12.40;99.90;;;;;;5009715;28;20699;-69
2023/10/31 04:17:07;;;;;;;13.82;9.38;;;12.50;99.90;;;;;;4963906;28;20256;-68
2023/10/31 04:19:33;;;;;;;10.68;8.07;;;12.50;99.90;;;;;;5010576;28;20194;-68
2023/10/31 04:22:02;;;;;;;13.45;9.40;;;12.50;99.90;;;;;;4994242;28;20248;-69
2023/10/31 04:24:29;;;;;;;12.43;9.27;;;12.60;99.90;;;;;;4993853;28;20329;-69
2023/10/31 04:26:55;;;;;;;12.27;8.75;;;12.50;99.90;;;;;;5009955;28;20230;-68
2023/10/31 04:29:22;;;;;;;12.32;9.07;;;12.90;99.90;;;;;;5009359;28;20205;-68
2023/10/31 04:31:49;;;;;;;13.23;9.07;;;12.40;99.90;;;;;;4985817;28;20229;-69
2023/10/31 04:34:16;;;;;;;12.88;9.20;;;12.50;99.90;;;;;;5000504;28;20406;-69
2023/10/31 04:36:43;;;;;;;11.85;9.40;;;12.40;99.90;;;;;;4999190;28;20202;-69
2023/10/31 04:39:11;;;;;;;15.30;9.50;;;12.40;99.90;;;;;;4997713;28;20209;-69
2023/10/31 04:41:38;;;;;;;13.02;9.77;;;12.50;99.90;;;;;;5013339;28;20205;-69
2023/10/31 04:44:05;;;;;;;11.10;8.15;;;12.40;99.90;;;;;;5008957;28;20194;-69
2023/10/31 04:46:32;;;;;;;11.23;8.43;;;12.40;99.90;;;;;;4982513;28;20823;-69
2023/10/31 04:48:58;;;;;;;13.48;8.55;;;12.50;99.90;;;;;;5004761;28;20193;-69
2023/10/31 04:51:25;;;;;;;11.07;8.57;;;;;;;;;;5007665;28;20544;-68
2023/10/31 04:53:53;;;;;;;17.10;7.90;;;12.40;99.90;;;;;;4985518;28;20201;-69
2023/10/31 04:56:21;;;;;;;12.65;9.05;;;12.50;99.90;;;;;;5008161;28;20197;-69
2023/10/31 04:58:48;;;;;;;11.40;7.82;;;12.40;99.90;;;;;;5013541;28;22743;-69
2023/10/31 05:01:15;;;;;;;9.20;7.43;;;12.30;99.90;;;;;;4967703;28;20405;-69
2023/10/31 05:03:41;;;;;;;16.80;9.13;;;12.50;99.90;;;;;;4978530;28;20327;-69
2023/10/31 05:06:08;;;;;;;13.25;9.02;;;12.40;99.90;;;;;;5010044;28;20225;-69
2023/10/31 05:08:35;;;;;;;11.15;8.85;;;12.50;99.90;;;;;;4978969;28;20206;-69
2023/10/31 05:11:02;;;;;;;13.60;8.52;;;12.70;99.90;;;;;;5009348;28;20954;-69
2023/10/31 05:13:30;;;;;;;11.38;8.32;;;12.40;99.90;;;;;;5013573;28;20209;-69
2023/10/31 05:15:57;;;;;;;17.10;9.60;;;12.40;99.90;;;;;;5005107;28;20599;-69
2023/10/31 05:18:24;;;;;;;13.82;9.50;;;12.60;99.90;;;;;;4984717;28;20209;-69
2023/10/31 05:20:50;;;;;;;14.70;9.27;;;12.50;99.90;;;;;;4991511;28;20403;-69
2023/10/31 05:23:17;;;;;;;13.88;9.10;;;12.40;99.90;;;;;;5003696;28;20210;-69
2023/10/31 05:25:44;;;;;;;12.48;8.50;;;12.50;99.90;;;;;;4976954;28;20229;-69
2023/10/31 05:28:11;;;;;;;12.63;8.95;;;12.50;99.90;;;;;;5014405;28;20226;-69
2023/10/31 05:30:39;;;;;;;14.05;9.63;;;12.50;99.90;;;;;;5004120;28;20934;-69
2023/10/31 05:33:06;;;;;;;13.07;9.25;;;12.40;99.90;;;;;;4985460;28;20237;-69
2023/10/31 05:35:33;;;;;;;13.35;8.80;;;12.40;99.90;;;;;;4992412;28;20212;-69
2023/10/31 05:38:00;;;;;;;13.43;9.30;;;12.40;99.90;;;;;;4999601;28;20212;-69
2023/10/31 05:40:29;;;;;;;11.43;8.13;;;12.50;99.90;;;;;;4999321;28;20212;-69
2023/10/31 05:42:57;;;;;;;10.02;7.60;;;12.50;99.90;;;;;;5008462;28;20332;-69
2023/10/31 05:45:23;;;;;;;11.13;8.02;;;12.60;99.90;;;;;;5011910;28;20198;-69
2023/10/31 05:47:51;;;;;;;8.60;5.65;;;12.50;99.90;;;;;;4972051;28;21240;-69
2023/10/31 05:50:19;;;;;;;2.25;1.60;;;12.60;99.90;;;;;;5003669;28;20205;-69
2023/10/31 05:52:45;;;;;;;0.70;0.70;;;12.10;99.90;;;;;;4997161;28;23141;-69
2023/10/31 05:55:12;;;;;;;3.03;0.88;;;11.80;99.90;;;;;;5007810;28;20202;-69
2023/10/31 05:57:39;;;;;;;0.88;0.50;;;11.60;99.90;;;;;;4999649;28;20209;-69
2023/10/31 06:00:07;;;;;;;1.20;1.00;;;11.60;99.90;;;;;;5015241;28;20597;-69
2023/10/31 06:02:34;;;;;;;1.92;0.90;;;11.30;99.90;;;;;;4979777;28;20202;-69
2023/10/31 06:05:02;;;;;;;0.70;0.70;;;11.40;99.90;;;;;;5001459;28;21904;-69
2023/10/31 06:07:30;;;;;;;0.82;0.65;;;11.20;99.90;;;;;;5011361;28;20232;-68
2023/10/31 06:09:57;;;;;;;1.13;0.70;;;11.20;99.90;;;;;;4993206;28;20228;-68
2023/10/31 06:12:23;;;;;;;0.60;0.43;;;11.20;99.90;;;;;;5009279;28;20201;-69
2023/10/31 06:14:50;;;;;;;0.80;0.60;;;11.20;99.90;;;;;;5014761;28;20198;-69
2023/10/31 06:17:17;;;;;;;1.08;0.30;;;11.10;99.90;;;;;;5000952;28;20529;-69
2023/10/31 06:19:45;;;;;;;0.32;0.32;;;10.90;99.90;;;;;;4990965;28;20205;-69
2023/10/31 06:22:13;;;;;;;1.80;0.52;;;10.90;99.90;;;;;;4999958;28;20206;-69
2023/10/31 06:24:41;;;;;;;0.40;0.40;;;11.00;99.90;;;;;;5007697;28;20208;-69
2023/10/31 06:27:08;;;;;;;0.60;0.60;;;10.90;99.90;;;;;;4991339;28;20236;-69
2023/10/31 06:29:34;;;;;;;0.50;0.43;;;10.90;99.90;;;;;;5017477;28;20562;-69
2023/10/31 06:32:02;;;;;;;0.40;0.40;;;;;;;;;;5002796;28;20292;-69
2023/10/31 06:34:29;;;;;;;0.47;0.47;;;10.90;99.90;;;;;;4983501;28;20217;-69
2023/10/31 06:36:55;;;;;;;0.43;0.43;;;11.00;99.90;;;;;;4998629;28;20200;-69
2023/10/31 06:39:24;;;;;;;0.63;0.50;;;10.90;99.90;;;;;;4998015;28;20701;-69
2023/10/31 06:41:50;;;;;;;0.45;0.43;;;10.70;99.90;;;;;;4996947;28;20208;-68
2023/10/31 06:44:17;;;;;;;0.55;0.52;;;10.90;99.90;;;;;;5005910;28;20205;-69
2023/10/31 06:46:44;;;;;;;0.45;0.40;;;10.80;99.90;;;;;;5014848;28;20796;-69
2023/10/31 06:49:11;;;;;;;3.10;0.47;;;10.80;99.90;;;;;;5002681;28;20754;-69
2023/10/31 06:51:37;;;;;;;0.90;0.60;;;10.90;99.90;;;;;;4974059;28;20578;-69
2023/10/31 06:54:05;;;;;;;1.58;0.40;;;10.90;99.90;;;;;;5003664;28;20197;-69
2023/10/31 06:56:33;;;;;;;1.08;0.55;;;10.80;99.90;;;;;;4993015;28;20198;-69
2023/10/31 06:59:00;;;;;;;1.23;0.40;;;10.80;99.90;;;;;;5000628;28;20209;-69
2023/10/31 07:01:27;;;;;;;0.82;0.40;;;10.70;99.90;;;;;;5011522;28;20194;-68
2023/10/31 07:03:53;;;;;;;1.85;0.60;;;10.80;99.90;;;;;;5011414;28;20194;-69
2023/10/31 07:06:21;;;;;;;1.83;0.70;;;10.70;99.90;;;;;;4971009;28;20609;-69
2023/10/31 07:08:47;;;;;;;1.15;0.70;;;10.80;99.90;;;;;;4977834;28;20194;-69
2023/10/31 07:11:14;;;;;;;1.88;0.52;;;10.70;99.90;;;;;;4990424;28;20237;-68
2023/10/31 07:13:44;;;;;;;3.00;0.70;;;10.70;99.90;;;;;;5001197;28;20534;-69
2023/10/31 07:16:11;;;;;;;3.97;0.60;;;10.70;99.90;;;;;;5009002;28;20232;-69
2023/10/31 07:18:37;;;;;;;1.05;0.65;;;10.80;99.90;;;;;;5011312;28;20303;-69
2023/10/31 07:21:05;;;;;;;0.90;0.40;;;10.80;99.90;;;;;;5001819;28;20205;-68
2023/10/31 07:23:32;;;;;;;0.55;0.40;;;10.70;99.90;;;;;;4972605;28;20411;-68
2023/10/31 07:25:58;;;;;;;0.52;0.40;;;10.60;99.90;;;;;;5003850;28;20225;-68
2023/10/31 07:28:25;;;;;;;1.48;0.50;;;10.60;99.90;;;;;;4980824;28;20601;-68
2023/10/31 07:30:53;;;;;;;0.65;0.65;;;10.60;99.90;;;;;;5011063;28;20218;-69
2023/10/31 07:33:20;;;;;;;1.10;0.60;;;10.60;99.90;;;;;;5006335;28;20205;-69
2023/10/31 07:35:47;;;;;;;0.93;0.85;;;10.90;99.90;;;;;;5004031;28;20733;-69
2023/10/31 07:38:14;;;;;;;2.92;0.80;;;10.60;99.90;;;;;;4983853;28;20693;-69
2023/10/31 07:40:41;;;;;;;2.40;0.50;;;10.50;99.90;;;;;;4995655;28;20613;-69
2023/10/31 07:43:08;;;;;;;0.90;0.50;;;10.50;99.90;;;;;;4999280;28;20707;-68
2023/10/31 07:45:35;;;;;;;2.13;0.40;;;10.50;99.90;;;;;;5002479;28;20202;-69
2023/10/31 07:48:03;;;;;;;1.85;0.57;;;10.50;99.90;;;;;;5016109;28;20791;-69
2023/10/31 07:50:30;;;;;;;2.60;0.50;;;11.10;99.90;;;;;;4994688;28;20229;-68
2023/10/31 07:52:57;;;;;;;0.82;0.65;;;10.50;99.90;;;;;;4982164;28;20205;-69
2023/10/31 07:55:24;;;;;;;4.32;0.70;;;10.10;99.90;;;;;;4982076;28;20873;-69
2023/10/31 07:57:51;;;;;;;3.10;1.48;;;10.50;99.90;;;;;;4992878;28;20264;-69
2023/10/31 08:00:18;;;;;;;2.05;1.48;;;10.50;99.90;;;;;;4989882;28;20218;-69
2023/10/31 08:02:44;;;;;;;6.32;4.13;;;10.60;99.90;;;;;;5009583;28;20201;-69
2023/10/31 08:05:13;;;;;;;3.20;1.80;;;10.50;99.90;;;;;;4961819;28;20225;-69
2023/10/31 08:07:39;;;;;;;2.20;1.20;;;10.50;99.90;;;;;;4987561;28;20244;-69
2023/10/31 08:10:07;;;;;;;5.80;1.48;;;10.50;99.90;;;;;;4947287;28;20239;-69
2023/10/31 08:12:35;;;;;;;3.28;1.20;;;;;;;;;;4960526;28;20206;-69
2023/10/31 08:15:02;;;;;;;1.80;0.95;;;10.80;99.90;;;;;;4930626;28;20217;-69
2023/10/31 08:17:28;;;;;;;2.85;1.00;;;10.80;99.90;;;;;;4971899;28;20194;-69
2023/10/31 08:19:55;;;;;;;4.78;0.90;;;10.60;99.90;;;;;;4980338;28;20197;-69
2023/10/31 08:22:23;;;;;;;0.60;0.60;;;10.60;99.90;;;;;;4992588;28;20236;-69
2023/10/31 08:24:50;;;;;;;0.73;0.60;;;10.60;99.90;;;;;;4967768;28;20260;-69
2023/10/31 08:27:17;;;;;;;2.60;0.75;;;10.60;99.90;;;;;;5000192;28;20224;-69
2023/10/31 08:29:44;;;;;;;0.88;0.70;;;10.60;99.90;;;;;;4998162;28;20428;-69
2023/10/31 08:32:10;;;;;;;2.05;0.88;;;10.60;99.90;;;;;;5005641;28;20411;-69
2023/10/31 08:34:37;;;;;;;0.45;0.45;;;10.70;99.90;;;;;;4993040;28;20703;-69
2023/10/31 08:37:04;;;;;;;0.80;0.50;;;10.70;99.90;;;;;;4977820;28;20409;-69
2023/10/31 08:39:32;;;;;;;0.40;0.40;;;10.70;99.90;;;;;;4946504;28;21551;-69
2023/10/31 08:41:59;;;;;;;1.30;0.90;;;10.80;99.90;;;;;;4987174;28;20225;-69
2023/10/31 08:44:26;;;;;;;1.73;0.90;;;10.80;99.90;;;;;;4970367;28;20206;-69
2023/10/31 08:46:53;;;;;;;0.82;0.70;;;10.80;99.90;;;;;;5004646;28;20229;-69
2023/10/31 08:49:20;;;;;;;1.55;0.80;;;10.70;99.90;;;;;;5002565;28;20198;-69
2023/10/31 08:51:46;;;;;;;1.15;0.80;;;10.70;99.90;;;;;;4992763;28;20241;-69
2023/10/31 08:54:13;;;;;;;1.88;1.08;;;10.80;99.90;;;;;;4998669;28;20193;-69
2023/10/31 08:56:41;;;;;;;1.65;0.60;;;10.80;99.90;;;;;;4964059;28;20221;-69
2023/10/31 08:59:08;;;;;;;1.13;1.00;;;10.70;99.90;;;;;;4977036;28;20236;-69
2023/10/31 09:01:35;;;;;;;2.08;0.95;;;10.80;99.90;;;;;;4997143;28;21585;-69
2023/10/31 09:04:02;;;;;;;0.88;0.85;;;10.70;99.90;;;;;;4980271;28;20679;-69
2023/10/31 09:06:28;;;;;;;0.60;0.60;;;10.70;99.90;;;;;;4988589;28;20766;-69
2023/10/31 09:08:55;;;;;;;0.95;0.88;;;10.90;99.90;;;;;;4949273;28;20233;-68
2023/10/31 09:11:22;;;;;;;1.95;1.20;;;10.80;99.90;;;;;;4959453;28;20236;-69
2023/10/31 09:13:50;;;;;;;1.70;1.60;;;10.80;99.90;;;;;;4969293;28;20462;-69
2023/10/31 09:16:17;;;;;;;1.38;1.20;;;10.80;99.90;;;;;;4986957;28;20571;-69
2023/10/31 09:18:44;;;;;;;0.50;0.50;;;10.90;99.90;;;;;;4997184;28;20335;-69
2023/10/31 09:21:11;;;;;;;0.50;0.50;;;10.70;99.90;;;;;;4997932;28;20205;-69
2023/10/31 09:23:38;;;;;;;2.47;0.57;;;10.70;99.90;;;;;;4990044;28;20940;-69
2023/10/31 09:26:05;;;;;;;3.95;0.65;;;10.70;99.90;;;;;;4963491;28;20213;-69
2023/10/31 09:28:32;;;;;;;1.45;0.45;;;11.30;99.90;;;;;;4976632;28;20226;-69
2023/10/31 09:31:01;;;;;;;1.83;1.13;;;11.60;99.90;;;;;;4980738;28;20193;-69
2023/10/31 09:33:28;;;;;;;0.70;0.70;;;9.70;99.90;;;;;;5010502;28;20239;-68
2023/10/31 09:35:55;;;;;;;1.55;0.75;;;10.80;99.90;;;;;;4990208;28;20205;-69
2023/10/31 09:38:21;;;;;;;1.40;0.80;;;10.80;99.90;;;;;;4986356;28;20574;-69
2023/10/31 09:40:49;;;;;;;0.77;0.77;;;10.90;99.90;;;;;;4982418;28;20671;-69
2023/10/31 09:43:16;;;;;;;1.65;1.30;;;10.80;99.90;;;;;;4959012;28;20512;-69
2023/10/31 09:45:45;;;;;;;1.70;1.60;;;10.20;99.90;;;;;;4979540;28;20606;-69
2023/10/31 09:48:13;;;;;;;2.53;2.33;;;11.10;99.90;;;;;;4995428;28;20236;-69
2023/10/31 09:50:41;;;;;;;2.17;1.40;;;;;;;;;;5004855;28;20225;-69
2023/10/31 09:53:09;;;;;;;4.57;1.25;;;11.20;99.90;;;;;;4994855;28;20221;-69
2023/10/31 09:55:36;;;;;;;4.70;1.98;;;11.10;99.90;;;;;;4977128;28;20218;-69
2023/10/31 09:58:03;;;;;;;2.90;2.30;;;11.20;99.90;;;;;;4974149;28;20233;-69
2023/10/31 10:00:30;;;;;;;4.07;1.95;;;11.30;99.90;;;;;;4989971;28;20229;-69
2023/10/31 10:02:57;;;;;;;2.22;2.03;;;11.40;99.90;;;;;;5014081;28;20229;-69
2023/10/31 10:05:27;;;;;;;2.28;1.67;;;11.00;99.90;;;;;;5003801;28;20222;-69
2023/10/31 10:07:56;;;;;;;1.48;1.38;;;11.30;99.90;;;;;;4980549;28;20278;-69
2023/10/31 10:10:23;;;;;;;1.73;1.48;;;11.30;99.90;;;;;;4969024;28;20228;-69
2023/10/31 10:12:52;;;;;;;2.45;1.67;;;11.30;99.90;;;;;;4955337;28;21139;-69
2023/10/31 10:15:19;;;;;;;2.30;2.10;;;14.20;99.90;;;;;;4949719;28;20217;-69
2023/10/31 10:17:51;;;;;;;2.17;1.60;;;11.40;99.90;;;;;;4993412;28;20419;-69
2023/10/31 10:20:17;;;;;;;1.77;1.63;;;11.30;99.90;;;;;;4989531;28;20825;-69
2023/10/31 10:22:46;;;;;;;3.15;1.75;;;11.30;99.90;;;;;;4983059;28;20228;-69
2023/10/31 10:25:15;;;;;;;2.40;2.20;;;11.40;99.90;;;;;;5002876;28;20237;-69
2023/10/31 10:27:42;;;;;;;3.00;1.85;;;11.50;99.90;;;;;;4951968;28;20966;-69
2023/10/31 10:30:10;;;;;;;2.85;2.15;;;11.50;99.90;;;;;;4983055;28;21443;-69
2023/10/31 10:32:37;;;;;;;3.10;1.77;;;11.50;99.90;;;;;;4994816;28;20228;-68
2023/10/31 10:35:04;;;;;;;3.08;1.90;;;11.40;99.90;;;;;;4995028;28;20644;-69
2023/10/31 10:37:32;;;;;;;5.10;2.25;;;11.60;99.90;;;;;;5004302;28;20221;-69
2023/10/31 10:40:01;;;;;;;4.55;2.65;;;11.50;99.90;;;;;;4988770;28;20224;-69
2023/10/31 10:42:34;;;;;;;2.00;1.67;;;11.40;99.90;;;;;;5003868;28;20225;-69
2023/10/31 10:45:05;;;;;;;2.53;2.20;;;11.50;99.90;;;;;;4965385;28;20243;-69
2023/10/31 10:47:33;;;;;;;3.55;2.42;;;11.60;99.90;;;;;;4983994;28;20320;-69
2023/10/31 10:50:02;;;;;;;3.45;2.03;;;11.70;99.90;;;;;;5000115;28;20206;-69
2023/10/31 10:52:35;;;;;;;3.33;2.42;;;11.70;99.90;;;;;;4955062;28;20817;-69
2023/10/31 10:55:09;;;;;;;3.00;1.98;;;11.70;99.90;;;;;;4961159;28;25312;-69
2023/10/31 10:57:47;;;;;;;2.97;2.00;;;12.40;99.90;;;;;;4940487;28;20775;-69
2023/10/31 11:00:16;;;;;;;2.00;1.60;;;11.80;99.90;;;;;;4941706;28;20211;-69
2023/10/31 11:02:45;;;;;;;4.80;2.15;;;11.80;99.90;;;;;;4950098;28;20210;-69
2023/10/31 11:05:13;;;;;;;3.42;1.35;;;11.80;99.90;;;;;;4959264;28;20230;-69
2023/10/31 11:07:42;;;;;;;2.80;1.65;;;12.10;99.90;;;;;;4953459;28;20689;-69
2023/10/31 11:10:11;;;;;;;1.92;1.40;;;12.30;99.90;;;;;;4958625;28;20247;-69
2023/10/31 11:12:39;;;;;;;3.72;2.13;;;12.20;99.90;;;;;;4958216;28;20629;-69
2023/10/31 11:15:08;;;;;;;2.78;1.40;;;12.30;99.90;;;;;;4940965;28;20235;-69
2023/10/31 11:17:37;;;;;;;1.98;1.65;;;12.20;99.90;;;;;;4950576;28;21125;-69
2023/10/31 11:20:08;;;;;;;1.33;1.15;;;12.10;99.90;;;;;;4968134;28;20227;-69
2023/10/31 11:22:41;;;;;;;1.33;1.23;;;11.80;99.90;;;;;;4938388;28;20231;-69
2023/10/31 11:25:09;;;;;;;3.20;1.40;;;12.00;99.90;;;;;;4962005;28;20238;-69
2023/10/31 11:27:37;;;;;;;3.00;1.73;;;11.90;99.90;;;;;;4963114;28;20273;-69
2023/10/31 11:30:07;;;;;;;1.23;1.13;;;12.00;99.90;;;;;;4973533;28;20294;-69
2023/10/31 11:32:34;;;;;;;2.55;1.70;;;11.90;99.90;;;;;;4926320;28;20234;-69
2023/10/31 11:35:02;;;;;;;2.78;1.52;;;12.10;99.90;;;;;;4966461;28;20770;-69
2023/10/31 11:37:34;;;;;;;4.25;1.70;;;12.00;99.90;;;;;;4954902;28;20210;-69
2023/10/31 11:40:21;;;;;;;1.77;1.42;;;12.00;99.90;;;;;;4945120;28;20230;-69
2023/10/31 11:42:51;;;;;;;4.00;1.90;;;12.00;99.90;;;;;;4964893;28;20210;-68
2023/10/31 11:45:34;;;;;;;2.00;1.42;;;12.00;99.90;;;;;;4966699;28;20202;-69
2023/10/31 11:48:01;;;;;;;4.10;1.95;;;12.10;99.90;;;;;;4945058;28;20728;-69
2023/10/31 11:50:28;;;;;;;2.20;1.48;;;12.00;99.90;;;;;;4964447;28;20234;-69
2023/10/31 11:53:05;;;;;;;1.80;1.60;;;11.90;99.90;;;;;;4995966;28;20210;-69
2023/10/31 11:55:35;;;;;;;2.25;1.63;;;11.90;99.90;;;;;;4994150;28;20284;-69
2023/10/31 11:58:18;;;;;;;2.10;1.40;;;11.80;99.90;;;;;;4978929;28;20601;-69
2023/10/31 12:00:45;;;;;;;1.52;1.02;;;11.90;99.90;;;;;;5004548;28;20217;-69
2023/10/31 12:03:12;;;;;;;1.17;0.55;;;11.40;99.90;;;;;;4943893;28;20594;-68
2023/10/31 12:05:39;;;;;;;0.45;0.45;;;11.20;99.90;;;;;;5002532;28;20201;-68
2023/10/31 12:08:06;;;;;;;0.70;0.70;;;11.10;99.90;;;;;;4999612;28;20585;-68
2023/10/31 12:10:33;;;;;;;0.30;0.30;;;11.40;99.90;;;;;;4981188;28;20627;-69
2023/10/31 12:13:00;;;;;;;2.22;0.82;;;11.20;99.90;;;;;;5010752;28;20197;-69
2023/10/31 12:15:28;;;;;;;92.25;11.20;;;11.90;99.90;;;;;;4994793;28;20226;-68
2023/10/31 12:17:59;;;;;;;1.10;0.80;;;11.30;99.90;;;;;;4984963;28;20224;-68
2023/10/31 12:20:26;;;;;;;2.42;0.80;;;10.80;99.90;;;;;;4991736;28;20206;-68
2023/10/31 12:23:04;;;;;;;0.82;0.40;;;10.60;99.90;;;;;;5011224;28;20225;-68
2023/10/31 12:25:34;;;;;;;0.80;0.70;;;10.50;99.90;;;;;;4985296;28;20307;-69
2023/10/31 12:28:01;;;;;;;1.40;0.70;;;10.40;99.90;;;;;;4996809;28;20993;-68
2023/10/31 12:30:30;;;;;;;0.40;0.40;;;10.50;99.90;;;;;;4994906;28;20224;-68
2023/10/31 12:32:57;;;;;;;3.72;0.40;;;10.40;99.90;;;;;;5008681;28;20208;-69
2023/10/31 12:35:26;;;;;;;1.40;0.50;;;10.30;99.90;;;;;;4942973;28;20239;-69
2023/10/31 12:37:53;;;;;;;1.73;0.88;;;10.30;99.90;;;;;;5013929;28;20804;-69
2023/10/31 12:40:21;;;;;;;1.45;0.43;;;10.30;99.90;;;;;;4985231;28;20216;-69
2023/10/31 12:42:50;;;;;;;3.13;0.60;;;10.30;99.90;;;;;;5015501;28;20197;-68
2023/10/31 12:45:19;;;;;;;0.82;0.60;;;10.30;99.90;;;;;;4999978;28;20368;-68
2023/10/31 12:48:02;;;;;;;0.30;0.30;;;10.30;99.90;;;;;;5015264;28;21250;-68
2023/10/31 12:50:29;;;;;;;0.40;0.40;;;10.20;99.90;;;;;;4964726;28;20240;-69